TAF and METAR

Decoding for American and Canadian METARs and TAFs is not fully implemented.

Could not understand the following METAR

KTRM 170252Z AUTO 34013KT 10SM CLR 40/06 A2960 RMK AO2 SLP028 T04000061 53006

TAF for Jacqueline Cochran Regional Airport

KTRM 162320Z 1700/1724 28010KT P6SM SKC FM170300 33010G18KT P6SM SKC FM171100 VRB04KT P6SM SKC FM171600 15012KT P6SM SKC
Report created 17. jul 01:20

between 17. jul 02:00 - 17. jul 02:00

wind 10 knots from W (280°)
Jacqueline Cochran Regional Airport in United States of America at -35m

Latest 5 airports